| time (UTC) | temp C | wind direction | speed KPH | gust KPH | rain 1hr cm | rain 24hr cm | rain mn cm | humidity % | barometer mb |
| 20260903154044 | 30 | 186 | 14.5 | 22.5 | 0.00 | 0.00 | 0.00 | 55 | 1011.9 |
| 20260903153544 | 30 | 208 | 9.7 | 24.1 | 0.00 | 0.00 | 0.00 | 55 | 1012.0 |
| 20260903153143 | 30 | 154 | 12.9 | 20.9 | 0.00 | 0.00 | 0.00 | 56 | 1011.9 |
| 20260903152542 | 30 | 175 | 11.3 | 22.5 | 0.00 | 0.00 | 0.00 | 56 | 1011.9 |
| 20260903152041 | 30 | 210 | 12.9 | 19.3 | 0.00 | 0.00 | 0.00 | 57 | 1012.0 |
| 20260903151541 | 30 | 219 | 9.7 | 25.7 | 0.00 | 0.00 | 0.00 | 57 | 1012.1 |
| 20260903151041 | 30 | 160 | 12.9 | 25.7 | 0.00 | 0.00 | 0.00 | 57 | 1012.0 |
| 20260903150540 | 30 | 205 | 6.4 | 19.3 | 0.00 | 0.00 | 0.00 | 59 | 1012.2 |
| 20260903150039 | 29 | 162 | 11.3 | 19.3 | 0.00 | 0.00 | 0.00 | 59 | 1012.2 |
| 20260903145539 | 29 | 197 | 11.3 | 19.3 | 0.00 | 0.00 | 0.00 | 60 | 1012.3 |
| 20260903145036 | 29 | 184 | 9.7 | 24.1 | 0.00 | 0.00 | 0.00 | 61 | 1012.3 |
| 20260903144536 | 28 | 184 | 14.5 | 24.1 | 0.00 | 0.00 | 0.00 | 61 | 1012.3 |
| 20260903144038 | 28 | 176 | 11.3 | 22.5 | 0.00 | 0.00 | 0.00 | 61 | 1012.3 |
| 20260903143537 | 28 | 194 | 9.7 | 16.1 | 0.00 | 0.00 | 0.00 | 61 | 1012.4 |
| 20260903143133 | 28 | 178 | 11.3 | 22.5 | 0.00 | 0.00 | 0.00 | 63 | 1012.5 |
| 20260903142537 | 28 | 182 | 6.4 | 19.3 | 0.00 | 0.00 | 0.00 | 63 | 1012.4 |
| 20260903142035 | 28 | 159 | 9.7 | 20.9 | 0.00 | 0.00 | 0.00 | 64 | 1012.4 |
| 20260903141532 | 28 | 218 | 6.4 | 22.5 | 0.00 | 0.00 | 0.00 | 65 | 1012.4 |
| 20260903141031 | 27 | 134 | 11.3 | 22.5 | 0.00 | 0.00 | 0.00 | 65 | 1012.4 |
| 20260903140531 | 27 | 180 | 6.4 | 16.1 | 0.00 | 0.00 | 0.00 | 67 | 1012.5 |
| 20260903140029 | 27 | 153 | 11.3 | 17.7 | 0.00 | 0.00 | 0.00 | 68 | 1012.5 |
| 20260903135527 | 27 | 159 | 12.9 | 17.7 | 0.00 | 0.00 | 0.00 | 68 | 1012.6 |
| 20260903135026 | 27 | 166 | 8.0 | 16.1 | 0.00 | 0.00 | 0.00 | 69 | 1012.6 |
| 20260903134525 | 27 | 176 | 6.4 | 14.5 | 0.00 | 0.00 | 0.00 | 70 | 1012.6 |
| 20260903134023 | 26 | 174 | 9.7 | 16.1 | 0.00 | 0.00 | 0.00 | 71 | 1012.6 |
| 20260903133524 | 26 | 183 | 6.4 | 14.5 | 0.00 | 0.00 | 0.00 | 72 | 1012.7 |
| 20260903133123 | 26 | 164 | 8.0 | 11.3 | 0.00 | 0.00 | 0.00 | 73 | 1012.6 |
| 20260903132522 | 26 | 173 | 8.0 | 12.9 | 0.00 | 0.00 | 0.00 | 73 | 1012.6 |
| 20260903132021 | 26 | 170 | 4.8 | 9.7 | 0.00 | 0.00 | 0.00 | 75 | 1012.5 |
| 20260903131521 | 25 | 198 | 1.6 | 8.0 | 0.00 | 0.00 | 0.00 | 76 | 1012.5 |
| 20260903131021 | 25 | 169 | 0.0 | 0.0 | 0.00 | 0.00 | 0.00 | 78 | 1012.5 |
| 20260903130520 | 25 | 169 | 0.0 | 0.0 | 0.00 | 0.00 | 0.00 | 79 | 1012.5 |
| 20260903130020 | 24 | 169 | 0.0 | 0.0 | 0.00 | 0.00 | 0.00 | 81 | 1012.6 |
| 20260903125520 | 24 | 169 | 0.0 | 0.0 | 0.00 | 0.00 | 0.00 | 81 | 1012.6 |
| 20260903125019 | 23 | 169 | 0.0 | 0.0 | 0.00 | 0.00 | 0.00 | 82 | 1012.5 |
| 20260903124518 | 23 | 169 | 0.0 | 0.0 | 0.00 | 0.00 | 0.00 | 82 | 1012.5 |
| 20260903124018 | 23 | 169 | 0.0 | 0.0 | 0.00 | 0.00 | 0.00 | 83 | 1012.5 |
| 20260903123521 | 23 | 169 | 0.0 | 0.0 | 0.00 | 0.00 | 0.00 | 84 | 1012.5 |
| 20260903123118 | 22 | 169 | 0.0 | 0.0 | 0.00 | 0.00 | 0.00 | 85 | 1012.3 |
| 20260903122519 | 22 | 169 | 0.0 | 0.0 | 0.00 | 0.00 | 0.00 | 85 | 1012.4 |
| 20260903122017 | 22 | 169 | 0.0 | 0.0 | 0.00 | 0.00 | 0.00 | 86 | 1012.3 |
| 20260903121516 | 22 | 169 | 0.0 | 0.0 | 0.00 | 0.00 | 0.00 | 86 | 1012.2 |
| 20260903121015 | 22 | 169 | 0.0 | 0.0 | 0.00 | 0.00 | 0.00 | 87 | 1012.1 |
| 20260903120516 | 22 | 169 | 0.0 | 0.0 | 0.00 | 0.00 | 0.00 | 87 | 1012.1 |
| 20260903120016 | 22 | 169 | 0.0 | 0.0 | 0.00 | 0.00 | 0.00 | 87 | 1012.1 |
| 20260903115514 | 21 | 169 | 0.0 | 0.0 | 0.00 | 0.00 | 0.00 | 87 | 1012.0 |
| 20260903115014 | 21 | 169 | 0.0 | 0.0 | 0.00 | 0.00 | 0.00 | 87 | 1012.0 |
| 20260903114514 | 21 | 169 | 0.0 | 0.0 | 0.00 | 0.00 | 0.00 | 86 | 1012.0 |
| 20260903114012 | 22 | 169 | 0.0 | 0.0 | 0.00 | 0.00 | 0.00 | 85 | 1011.9 |
| 20260903113511 | 22 | 169 | 0.0 | 0.0 | 0.00 | 0.00 | 0.00 | 84 | 1011.9 |
| 20260903113111 | 22 | 169 | 0.0 | 0.0 | 0.00 | 0.00 | 0.00 | 84 | 1011.8 |
| 20260903112512 | 22 | 169 | 0.0 | 0.0 | 0.00 | 0.00 | 0.00 | 84 | 1011.8 |
| 20260903112011 | 22 | 169 | 0.0 | 0.0 | 0.00 | 0.00 | 0.00 | 84 | 1011.9 |
| 20260903111510 | 22 | 169 | 0.0 | 0.0 | 0.00 | 0.00 | 0.00 | 84 | 1011.9 |
| 20260903111009 | 22 | 169 | 0.0 | 0.0 | 0.00 | 0.00 | 0.00 | 83 | 1011.9 |
| 20260903110509 | 23 | 169 | 0.0 | 0.0 | 0.00 | 0.00 | 0.00 | 82 | 1011.8 |
| 20260903110007 | 23 | 169 | 0.0 | 0.0 | 0.00 | 0.00 | 0.00 | 82 | 1011.8 |
| 20260903105507 | 23 | 169 | 0.0 | 0.0 | 0.00 | 0.00 | 0.00 | 82 | 1011.8 |
| 20260903105008 | 23 | 169 | 0.0 | 0.0 | 0.00 | 0.00 | 0.00 | 82 | 1011.8 |
| 20260903104506 | 23 | 169 | 0.0 | 0.0 | 0.00 | 0.00 | 0.00 | 82 | 1011.7 |
| 20260903104005 | 23 | 169 | 0.0 | 0.0 | 0.00 | 0.00 | 0.00 | 83 | 1011.7 |
| 20260903103505 | 23 | 169 | 0.0 | 0.0 | 0.00 | 0.00 | 0.00 | 82 | 1011.7 |
| 20260903103106 | 23 | 169 | 0.0 | 0.0 | 0.00 | 0.00 | 0.00 | 82 | 1011.6 |
| 20260903102508 | 23 | 169 | 0.0 | 0.0 | 0.00 | 0.00 | 0.00 | 82 | 1011.6 |
| 20260903102008 | 23 | 169 | 0.0 | 0.0 | 0.00 | 0.00 | 0.00 | 82 | 1011.6 |
| 20260903101504 | 23 | 169 | 0.0 | 3.2 | 0.00 | 0.00 | 0.00 | 82 | 1011.5 |
| 20260903101003 | 23 | 169 | 0.0 | 3.2 | 0.00 | 0.00 | 0.00 | 82 | 1011.5 |
| 20260903100503 | 23 | 169 | 0.0 | 0.0 | 0.00 | 0.00 | 0.00 | 82 | 1011.6 |
| 20260903100005 | 23 | 169 | 0.0 | 0.0 | 0.00 | 0.00 | 0.00 | 81 | 1011.5 |
| 20260903095505 | 23 | 169 | 0.0 | 1.6 | 0.00 | 0.00 | 0.00 | 81 | 1011.5 |
| 20260903095001 | 23 | 169 | 0.0 | 1.6 | 0.00 | 0.00 | 0.00 | 81 | 1011.5 |
| 20260903094501 | 23 | 169 | 0.0 | 4.8 | 0.00 | 0.00 | 0.00 | 81 | 1011.5 |
| 20260903094001 | 23 | 169 | 0.0 | 4.8 | 0.00 | 0.00 | 0.00 | 81 | 1011.4 |
| 20260903093501 | 23 | 169 | 3.2 | 6.4 | 0.00 | 0.00 | 0.00 | 80 | 1011.4 |
| 20260903093135 | 23 | 169 | 0.0 | 1.6 | 0.00 | 0.00 | 0.00 | 79 | 1011.5 |
| 20260903092501 | 23 | 169 | 0.0 | 0.0 | 0.00 | 0.00 | 0.00 | 79 | 1011.4 |
| 20260903092100 | 23 | 169 | 0.0 | 0.0 | 0.00 | 0.00 | 0.00 | 79 | 1011.4 |
| 20260903091601 | 23 | 169 | 0.0 | 0.0 | 0.00 | 0.00 | 0.00 | 79 | 1011.4 |
| 20260903091059 | 23 | 169 | 0.0 | 0.0 | 0.00 | 0.00 | 0.00 | 78 | 1011.4 |
| 20260903090557 | 23 | 169 | 0.0 | 0.0 | 0.00 | 0.00 | 0.00 | 77 | 1011.5 |
| 20260903090059 | 24 | 169 | 0.0 | 0.0 | 0.00 | 0.00 | 0.00 | 77 | 1011.4 |
| 20260903085555 | 24 | 169 | 0.0 | 0.0 | 0.00 | 0.00 | 0.00 | 76 | 1011.4 |
| 20260903085054 | 24 | 169 | 0.0 | 0.0 | 0.00 | 0.00 | 0.00 | 75 | 1011.4 |
| 20260903084554 | 25 | 169 | 0.0 | 0.0 | 0.00 | 0.00 | 0.00 | 75 | 1011.3 |
| 20260903084054 | 25 | 169 | 0.0 | 0.0 | 0.00 | 0.00 | 0.00 | 75 | 1011.3 |
| 20260903083553 | 25 | 169 | 0.0 | 0.0 | 0.00 | 0.00 | 0.00 | 75 | 1011.3 |
| 20260903083054 | 25 | 169 | 0.0 | 0.0 | 0.00 | 0.00 | 0.00 | 75 | 1011.4 |
| 20260903082554 | 25 | 169 | 0.0 | 0.0 | 0.00 | 0.00 | 0.00 | 74 | 1011.3 |
| 20260903082051 | 25 | 169 | 0.0 | 0.0 | 0.00 | 0.00 | 0.00 | 74 | 1011.3 |
| 20260903081551 | 25 | 169 | 0.0 | 0.0 | 0.00 | 0.00 | 0.00 | 74 | 1011.2 |
| 20260903081051 | 25 | 169 | 0.0 | 1.6 | 0.00 | 0.00 | 0.00 | 74 | 1011.2 |
| 20260903080553 | 25 | 169 | 0.0 | 1.6 | 0.00 | 0.00 | 0.00 | 74 | 1011.2 |
| 20260903080103 | 25 | 169 | 0.0 | 3.2 | 0.00 | 0.00 | 0.00 | 73 | 1011.1 |
| 20260903075550 | 25 | 169 | 0.0 | 4.8 | 0.00 | 0.00 | 0.00 | 73 | 1011.2 |
| 20260903075050 | 25 | 168 | 0.0 | 4.8 | 0.00 | 0.00 | 0.00 | 72 | 1011.2 |
| 20260903074602 | 25 | 169 | 1.6 | 8.0 | 0.00 | 0.00 | 0.00 | 72 | 1011.1 |
| 20260903074050 | 25 | 167 | 3.2 | 9.7 | 0.00 | 0.00 | 0.00 | 72 | 1011.2 |
| 20260903073549 | 25 | 165 | 4.8 | 9.7 | 0.00 | 0.00 | 0.00 | 73 | 1011.2 |
| 20260903073059 | 25 | 161 | 3.2 | 9.7 | 0.00 | 0.00 | 0.00 | 73 | 1011.2 |
| 20260903072547 | 25 | 181 | 1.6 | 6.4 | 0.00 | 0.00 | 0.00 | 72 | 1011.3 |
| 20260903072046 | 25 | 180 | 0.0 | 4.8 | 0.00 | 0.00 | 0.00 | 71 | 1011.2 |
| 20260903071548 | 25 | 180 | 0.0 | 4.8 | 0.00 | 0.00 | 0.00 | 71 | 1011.2 |
| 20260903071045 | 25 | 180 | 1.6 | 4.8 | 0.00 | 0.00 | 0.00 | 70 | 1011.2 |
| 20260903070547 | 26 | 180 | 0.0 | 8.0 | 0.00 | 0.00 | 0.00 | 70 | 1011.1 |
| 20260903070046 | 26 | 175 | 1.6 | 4.8 | 0.00 | 0.00 | 0.00 | 70 | 1011.2 |
| 20260903065547 | 26 | 175 | 1.6 | 4.8 | 0.00 | 0.00 | 0.00 | 70 | 1011.2 |
| 20260903065046 | 25 | 172 | 1.6 | 4.8 | 0.00 | 0.00 | 0.00 | 71 | 1011.2 |
| 20260903064546 | 25 | 170 | 0.0 | 4.8 | 0.00 | 0.00 | 0.00 | 71 | 1011.2 |
| 20260903064046 | 25 | 153 | 0.0 | 8.0 | 0.00 | 0.00 | 0.00 | 71 | 1011.2 |
| 20260903063545 | 25 | 153 | 1.6 | 9.7 | 0.00 | 0.00 | 0.00 | 71 | 1011.2 |
| 20260903063045 | 25 | 153 | 3.2 | 8.0 | 0.00 | 0.00 | 0.00 | 71 | 1011.2 |
| 20260903062545 | 25 | 153 | 4.8 | 8.0 | 0.00 | 0.00 | 0.00 | 71 | 1011.1 |
| 20260903062045 | 25 | 153 | 4.8 | 8.0 | 0.00 | 0.00 | 0.00 | 71 | 1011.2 |
| 20260903061547 | 25 | 152 | 3.2 | 8.0 | 0.00 | 0.00 | 0.00 | 70 | 1011.1 |
| 20260903061044 | 25 | 152 | 3.2 | 8.0 | 0.00 | 0.00 | 0.00 | 70 | 1011.1 |
| 20260903060545 | 25 | 152 | 3.2 | 8.0 | 0.00 | 0.00 | 0.00 | 70 | 1011.2 |
| 20260903060044 | 25 | 152 | 3.2 | 4.8 | 0.00 | 0.00 | 0.00 | 71 | 1011.0 |
| 20260903055544 | 25 | 152 | 3.2 | 4.8 | 0.00 | 0.00 | 0.00 | 71 | 1011.0 |
| 20260903055043 | 25 | 152 | 1.6 | 4.8 | 0.00 | 0.00 | 0.00 | 70 | 1011.1 |
| 20260903054542 | 25 | 152 | 1.6 | 4.8 | 0.00 | 0.00 | 0.00 | 70 | 1011.0 |
| 20260903054042 | 25 | 152 | 1.6 | 4.8 | 0.00 | 0.00 | 0.00 | 69 | 1011.0 |
| 20260903053540 | 26 | 152 | 0.0 | 3.2 | 0.00 | 0.00 | 0.00 | 69 | 1011.0 |
| 20260903053039 | 26 | 152 | 0.0 | 0.0 | 0.00 | 0.00 | 0.00 | 68 | 1011.0 |
| 20260903052540 | 26 | 152 | 0.0 | 3.2 | 0.00 | 0.00 | 0.00 | 68 | 1011.0 |
| 20260903052039 | 26 | 152 | 0.0 | 3.2 | 0.00 | 0.00 | 0.00 | 68 | 1011.0 |
| 20260903051539 | 26 | 152 | 0.0 | 4.8 | 0.00 | 0.00 | 0.00 | 68 | 1011.0 |
| 20260903051038 | 26 | 152 | 1.6 | 4.8 | 0.00 | 0.00 | 0.00 | 68 | 1010.9 |
| 20260903050537 | 26 | 152 | 1.6 | 3.2 | 0.00 | 0.00 | 0.00 | 67 | 1010.9 |
| 20260903050038 | 26 | 159 | 1.6 | 3.2 | 0.00 | 0.00 | 0.00 | 66 | 1010.8 |
| 20260903045535 | 26 | 159 | 1.6 | 3.2 | 0.00 | 0.00 | 0.00 | 66 | 1010.8 |
| 20260903045035 | 26 | 159 | 0.0 | 0.0 | 0.00 | 0.00 | 0.00 | 65 | 1010.8 |
| 20260903044535 | 26 | 159 | 0.0 | 8.0 | 0.00 | 0.00 | 0.00 | 65 | 1010.8 |
| 20260903044035 | 27 | 159 | 0.0 | 8.0 | 0.00 | 0.00 | 0.00 | 64 | 1010.8 |
| 20260903043535 | 27 | 159 | 3.2 | 8.0 | 0.00 | 0.00 | 0.00 | 64 | 1010.9 |
| 20260903043034 | 27 | 159 | 4.8 | 8.0 | 0.00 | 0.00 | 0.00 | 63 | 1010.9 |
| 20260903042534 | 27 | 159 | 4.8 | 8.0 | 0.00 | 0.00 | 0.00 | 63 | 1010.9 |
| 20260903042034 | 27 | 159 | 4.8 | 8.0 | 0.00 | 0.00 | 0.00 | 62 | 1010.9 |
| 20260903041539 | 27 | 159 | 3.2 | 8.0 | 0.00 | 0.00 | 0.00 | 62 | 1010.9 |
| 20260903041036 | 27 | 159 | 3.2 | 8.0 | 0.00 | 0.00 | 0.00 | 61 | 1010.9 |
| 20260903040534 | 28 | 159 | 3.2 | 8.0 | 0.00 | 0.00 | 0.00 | 61 | 1010.9 |
| 20260903040034 | 28 | 163 | 4.8 | 9.7 | 0.00 | 0.00 | 0.00 | 60 | 1010.9 |
| 20260903035533 | 28 | 163 | 4.8 | 9.7 | 0.00 | 0.00 | 0.00 | 60 | 1010.9 |
| 20260903035033 | 28 | 150 | 6.4 | 9.7 | 0.00 | 0.00 | 0.00 | 59 | 1010.9 |
| 20260903034544 | 28 | 135 | 4.8 | 8.0 | 0.00 | 0.00 | 0.00 | 59 | 1011.0 |
| 20260903034032 | 28 | 139 | 6.4 | 11.3 | 0.00 | 0.00 | 0.00 | 58 | 1011.0 |
| 20260903033536 | 29 | 138 | 6.4 | 12.9 | 0.00 | 0.00 | 0.00 | 58 | 1011.0 |
| 20260903033040 | 29 | 146 | 8.0 | 12.9 | 0.00 | 0.00 | 0.00 | 57 | 1010.9 |
| 20260903032534 | 29 | 148 | 8.0 | 14.5 | 0.00 | 0.00 | 0.00 | 56 | 1010.9 |
| 20260903032033 | 30 | 143 | 8.0 | 20.9 | 0.00 | 0.00 | 0.00 | 56 | 1010.9 |
| 20260903031537 | 30 | 144 | 11.3 | 20.9 | 0.00 | 0.00 | 0.00 | 56 | 1010.9 |
| 20260903031032 | 30 | 146 | 11.3 | 17.7 | 0.00 | 0.00 | 0.00 | 56 | 1010.9 |
| 20260903030532 | 30 | 143 | 11.3 | 17.7 | 0.00 | 0.00 | 0.00 | 55 | 1010.9 |
| 20260903030033 | 30 | 148 | 9.7 | 16.1 | 0.00 | 0.00 | 0.00 | 55 | 1010.9 |
| 20260903025534 | 30 | 143 | 9.7 | 16.1 | 0.00 | 0.00 | 0.00 | 55 | 1010.8 |
| 20260903025032 | 30 | 153 | 9.7 | 19.3 | 0.00 | 0.00 | 0.00 | 55 | 1010.8 |
| 20260903024532 | 30 | 130 | 9.7 | 17.7 | 0.00 | 0.00 | 0.00 | 54 | 1010.8 |
| 20260903024033 | 30 | 145 | 11.3 | 22.5 | 0.00 | 0.00 | 0.00 | 54 | 1010.8 |
| 20260903023535 | 30 | 154 | 12.9 | 20.9 | 0.00 | 0.00 | 0.00 | 54 | 1010.6 |
| 20260903023036 | 30 | 144 | 9.7 | 16.1 | 0.00 | 0.00 | 0.00 | 54 | 1010.6 |
| 20260903022532 | 30 | 137 | 8.0 | 16.1 | 0.00 | 0.00 | 0.00 | 54 | 1010.5 |
| 20260903022031 | 30 | 167 | 8.0 | 16.1 | 0.00 | 0.00 | 0.00 | 54 | 1010.5 |
| 20260903021531 | 30 | 173 | 6.4 | 16.1 | 0.00 | 0.00 | 0.00 | 53 | 1010.5 |
| 20260903021031 | 31 | 153 | 8.0 | 16.1 | 0.00 | 0.00 | 0.00 | 53 | 1010.5 |
| 20260903020533 | 31 | 145 | 9.7 | 16.1 | 0.00 | 0.00 | 0.00 | 53 | 1010.4 |
| 20260903020032 | 31 | 137 | 9.7 | 25.7 | 0.00 | 0.00 | 0.00 | 52 | 1010.1 |
| 20260903015531 | 31 | 147 | 11.3 | 25.7 | 0.00 | 0.00 | 0.00 | 53 | 1010.2 |
| 20260903015030 | 31 | 142 | 9.7 | 16.1 | 0.00 | 0.00 | 0.00 | 53 | 1010.2 |
| 20260903014546 | 31 | 145 | 8.0 | 12.9 | 0.00 | 0.00 | 0.00 | 52 | 1010.1 |
| 20260903014031 | 31 | 133 | 8.0 | 12.9 | 0.00 | 0.00 | 0.00 | 51 | 1010.0 |
| 20260903013531 | 31 | 150 | 6.4 | 12.9 | 0.00 | 0.00 | 0.00 | 51 | 1009.9 |
| 20260903013034 | 31 | 164 | 8.0 | 16.1 | 0.00 | 0.00 | 0.00 | 50 | 1009.8 |
| 20260903012533 | 31 | 153 | 9.7 | 16.1 | 0.00 | 0.00 | 0.00 | 50 | 1009.8 |
| 20260903012032 | 31 | 150 | 9.7 | 14.5 | 0.00 | 0.00 | 0.00 | 49 | 1009.7 |
| 20260903011535 | 31 | 141 | 9.7 | 14.5 | 0.00 | 0.00 | 0.00 | 49 | 1009.7 |
| 20260903011033 | 32 | 161 | 8.0 | 14.5 | 0.00 | 0.00 | 0.00 | 48 | 1009.7 |
| 20260903010530 | 32 | 152 | 6.4 | 16.1 | 0.00 | 0.00 | 0.00 | 47 | 1009.6 |
| 20260903010030 | 32 | 155 | 8.0 | 16.1 | 0.00 | 0.00 | 0.00 | 46 | 1009.6 |
| 20260903005531 | 32 | 149 | 8.0 | 16.1 | 0.00 | 0.00 | 0.00 | 46 | 1009.6 |
| 20260903005030 | 32 | 165 | 9.7 | 17.7 | 0.00 | 0.00 | 0.00 | 46 | 1009.6 |
| 20260903004541 | 32 | 168 | 11.3 | 17.7 | 0.00 | 0.00 | 0.00 | 45 | 1009.5 |
| 20260903004031 | 33 | 163 | 8.0 | 17.7 | 0.00 | 0.00 | 0.00 | 44 | 1009.4 |
| 20260903003531 | 33 | 163 | 9.7 | 17.7 | 0.00 | 0.00 | 0.00 | 44 | 1009.4 |
| 20260903003038 | 33 | 144 | 11.3 | 20.9 | 0.00 | 0.00 | 0.00 | 44 | 1009.3 |
| 20260903002530 | 33 | 168 | 14.5 | 20.9 | 0.00 | 0.00 | 0.00 | 43 | 1009.3 |
| 20260903002030 | 33 | 167 | 8.0 | 17.7 | 0.00 | 0.00 | 0.00 | 42 | 1009.3 |
| 20260903001530 | 33 | 161 | 8.0 | 17.7 | 0.00 | 0.00 | 0.00 | 42 | 1009.3 |
| 20260903001029 | 34 | 147 | 9.7 | 19.3 | 0.00 | 0.00 | 0.00 | 41 | 1009.3 |
| 20260903000529 | 34 | 167 | 11.3 | 22.5 | 0.00 | 0.00 | 0.00 | 40 | 1009.4 |
| 20260903000030 | 34 | 160 | 8.0 | 17.7 | 0.00 | 0.00 | 0.00 | 39 | 1009.3 |
| 20260902235529 | 34 | 153 | 9.7 | 17.7 | 0.00 | 0.00 | 0.00 | 39 | 1009.3 |
| 20260902235029 | 35 | 182 | 11.3 | 17.7 | 0.00 | 0.00 | 0.00 | 39 | 1009.3 |
| 20260902234528 | 35 | 159 | 11.3 | 25.7 | 0.00 | 0.00 | 0.00 | 39 | 1009.3 |
| 20260902234028 | 35 | 158 | 12.9 | 25.7 | 0.00 | 0.00 | 0.00 | 39 | 1009.3 |
| 20260902233527 | 35 | 163 | 12.9 | 19.3 | 0.00 | 0.00 | 0.00 | 39 | 1009.3 |
| 20260902233027 | 35 | 176 | 11.3 | 19.3 | 0.00 | 0.00 | 0.00 | 39 | 1009.3 |
| 20260902232529 | 35 | 180 | 11.3 | 16.1 | 0.00 | 0.00 | 0.00 | 37 | 1009.4 |
| 20260902232026 | 35 | 167 | 9.7 | 17.7 | 0.00 | 0.00 | 0.00 | 37 | 1009.4 |
| 20260902231526 | 35 | 182 | 11.3 | 19.3 | 0.00 | 0.00 | 0.00 | 37 | 1009.5 |
| 20260902231026 | 35 | 159 | 11.3 | 25.7 | 0.00 | 0.00 | 0.00 | 37 | 1009.5 |
| 20260902230531 | 35 | 165 | 14.5 | 25.7 | 0.00 | 0.00 | 0.00 | 37 | 1009.4 |
| 20260902230026 | 36 | 159 | 11.3 | 22.5 | 0.00 | 0.00 | 0.00 | 36 | 1009.4 |
| 20260902225527 | 36 | 141 | 12.9 | 22.5 | 0.00 | 0.00 | 0.00 | 36 | 1009.4 |
| 20260902225027 | 36 | 177 | 12.9 | 19.3 | 0.00 | 0.00 | 0.00 | 37 | 1009.4 |
| 20260902224526 | 36 | 146 | 12.9 | 22.5 | 0.00 | 0.00 | 0.00 | 37 | 1009.4 |
| 20260902224027 | 36 | 155 | 17.7 | 22.5 | 0.00 | 0.00 | 0.00 | 37 | 1009.4 |
| 20260902223528 | 36 | 109 | 14.5 | 25.7 | 0.00 | 0.00 | 0.00 | 36 | 1009.5 |
| 20260902223031 | 36 | 108 | 16.1 | 27.4 | 0.00 | 0.00 | 0.00 | 36 | 1009.5 |
| 20260902222525 | 36 | 165 | 19.3 | 27.4 | 0.00 | 0.00 | 0.00 | 36 | 1009.6 |
| 20260902222029 | 36 | 163 | 12.9 | 22.5 | 0.00 | 0.00 | 0.00 | 35 | 1009.6 |
| 20260902221525 | 36 | 138 | 6.4 | 14.5 | 0.00 | 0.00 | 0.00 | 36 | 1009.7 |
| 20260902221025 | 36 | 252 | 6.4 | 17.7 | 0.00 | 0.00 | 0.00 | 35 | 1009.7 |
| 20260902220525 | 36 | 210 | 9.7 | 24.1 | 0.00 | 0.00 | 0.00 | 35 | 1009.7 |
| 20260902220025 | 36 | 134 | 11.3 | 20.9 | 0.00 | 0.00 | 0.00 | 35 | 1009.7 |
| 20260902215523 | 36 | 116 | 12.9 | 20.9 | 0.00 | 0.00 | 0.00 | 35 | 1009.7 |
| 20260902215023 | 37 | 167 | 9.7 | 17.7 | 0.00 | 0.00 | 0.00 | 35 | 1009.8 |
| 20260902214528 | 37 | 165 | 8.0 | 20.9 | 0.00 | 0.00 | 0.00 | 34 | 1009.8 |
| 20260902214023 | 36 | 186 | 11.3 | 20.9 | 0.00 | 0.00 | 0.00 | 36 | 1009.8 |
| 20260902213522 | 36 | 96 | 12.9 | 24.1 | 0.00 | 0.00 | 0.00 | 36 | 1009.8 |
| 20260902213027 | 36 | 101 | 16.1 | 24.1 | 0.00 | 0.00 | 0.00 | 36 | 1009.8 |
| 20260902212520 | 36 | 107 | 12.9 | 27.4 | 0.00 | 0.00 | 0.00 | 36 | 1009.9 |
| 20260902212020 | 36 | 108 | 12.9 | 27.4 | 0.00 | 0.00 | 0.00 | 36 | 1009.9 |
| 20260902211520 | 36 | 149 | 6.4 | 12.9 | 0.00 | 0.00 | 0.00 | 36 | 1010.0 |
| 20260902211020 | 36 | 98 | 4.8 | 17.7 | 0.00 | 0.00 | 0.00 | 37 | 1010.0 |
| 20260902210519 | 36 | 113 | 4.8 | 20.9 | 0.00 | 0.00 | 0.00 | 37 | 1010.1 |
| 20260902210026 | 36 | 128 | 14.5 | 22.5 | 0.00 | 0.00 | 0.00 | 36 | 1010.1 |
| 20260902205518 | 36 | 123 | 14.5 | 22.5 | 0.00 | 0.00 | 0.00 | 36 | 1010.1 |
| 20260902205017 | 36 | 182 | 9.7 | 22.5 | 0.00 | 0.00 | 0.00 | 36 | 1010.2 |
| 20260902204518 | 36 | 144 | 6.4 | 17.7 | 0.00 | 0.00 | 0.00 | 36 | 1010.3 |
| 20260902204015 | 36 | 265 | 6.4 | 17.7 | 0.00 | 0.00 | 0.00 | 37 | 1010.3 |
| 20260902203515 | 36 | 138 | 8.0 | 19.3 | 0.00 | 0.00 | 0.00 | 37 | 1010.3 |
| 20260902203022 | 36 | 93 | 12.9 | 20.9 | 0.00 | 0.00 | 0.00 | 38 | 1010.4 |
| 20260902202514 | 36 | 125 | 14.5 | 20.9 | 0.00 | 0.00 | 0.00 | 37 | 1010.4 |
| 20260902202013 | 36 | 130 | 9.7 | 17.7 | 0.00 | 0.00 | 0.00 | 36 | 1010.5 |
| 20260902201517 | 36 | 190 | 6.4 | 17.7 | 0.00 | 0.00 | 0.00 | 36 | 1010.6 |
| 20260902201011 | 36 | 225 | 9.7 | 20.9 | 0.00 | 0.00 | 0.00 | 37 | 1010.7 |
| 20260902200509 | 36 | 166 | 12.9 | 27.4 | 0.00 | 0.00 | 0.00 | 36 | 1010.8 |
| 20260902200013 | 35 | 160 | 8.0 | 16.1 | 0.00 | 0.00 | 0.00 | 38 | 1010.8 |
| 20260902195509 | 35 | 138 | 8.0 | 16.1 | 0.00 | 0.00 | 0.00 | 37 | 1010.9 |
| 20260902195008 | 35 | 150 | 4.8 | 22.5 | 0.00 | 0.00 | 0.00 | 36 | 1011.0 |
| 20260902194508 | 35 | 180 | 8.0 | 22.5 | 0.00 | 0.00 | 0.00 | 37 | 1011.1 |
| 20260902194009 | 35 | 96 | 4.8 | 16.1 | 0.00 | 0.00 | 0.00 | 39 | 1011.2 |
| 20260902193507 | 35 | 138 | 3.2 | 19.3 | 0.00 | 0.00 | 0.00 | 39 | 1011.4 |
| 20260902193006 | 35 | 168 | 8.0 | 19.3 | 0.00 | 0.00 | 0.00 | 38 | 1011.4 |
| 20260902192505 | 36 | 146 | 12.9 | 20.9 | 0.00 | 0.00 | 0.00 | 37 | 1011.5 |
| 20260902192005 | 36 | 117 | 14.5 | 20.9 | 0.00 | 0.00 | 0.00 | 38 | 1011.5 |
| 20260902191504 | 35 | 153 | 8.0 | 17.7 | 0.00 | 0.00 | 0.00 | 39 | 1011.5 |
| 20260902191005 | 35 | 103 | 3.2 | 12.9 | 0.00 | 0.00 | 0.00 | 39 | 1011.6 |
| 20260902190505 | 35 | 202 | 3.2 | 14.5 | 0.00 | 0.00 | 0.00 | 40 | 1011.8 |
| 20260902190002 | 35 | 85 | 4.8 | 24.1 | 0.00 | 0.00 | 0.00 | 39 | 1011.8 |
| 20260902185502 | 35 | 128 | 4.8 | 24.1 | 0.00 | 0.00 | 0.00 | 39 | 1011.8 |
| 20260902185100 | 35 | 139 | 11.3 | 20.9 | 0.00 | 0.00 | 0.00 | 40 | 1011.9 |
| 20260902184603 | 35 | 217 | 8.0 | 22.5 | 0.00 | 0.00 | 0.00 | 40 | 1012.0 |
| 20260902184058 | 35 | 142 | 9.7 | 22.5 | 0.00 | 0.00 | 0.00 | 40 | 1012.0 |
| 20260902183558 | 35 | 229 | 6.4 | 20.9 | 0.00 | 0.00 | 0.00 | 40 | 1012.1 |
| 20260902183110 | 35 | 211 | 9.7 | 20.9 | 0.00 | 0.00 | 0.00 | 40 | 1012.2 |
| 20260902182555 | 35 | 213 | 8.0 | 16.1 | 0.00 | 0.00 | 0.00 | 41 | 1012.3 |
| 20260902182055 | 34 | 242 | 1.6 | 19.3 | 0.00 | 0.00 | 0.00 | 42 | 1012.4 |
| 20260902181555 | 34 | 180 | 1.6 | 24.1 | 0.00 | 0.00 | 0.00 | 41 | 1012.5 |
| 20260902181053 | 35 | 154 | 16.1 | 24.1 | 0.00 | 0.00 | 0.00 | 41 | 1012.6 |
| 20260902180553 | 34 | 273 | 8.0 | 16.1 | 0.00 | 0.00 | 0.00 | 44 | 1012.6 |
| 20260902180052 | 34 | 296 | 11.3 | 19.3 | 0.00 | 0.00 | 0.00 | 42 | 1012.7 |
| 20260902175052 | 34 | 257 | 6.4 | 19.3 | 0.00 | 0.00 | 0.00 | 44 | 1012.9 |
| 20260902174553 | 34 | 221 | 9.7 | 19.3 | 0.00 | 0.00 | 0.00 | 45 | 1013.1 |
| 20260902174051 | 34 | 273 | 6.4 | 19.3 | 0.00 | 0.00 | 0.00 | 45 | 1013.2 |
| 20260902173549 | 34 | 234 | 4.8 | 12.9 | 0.00 | 0.00 | 0.00 | 45 | 1013.2 |
| 20260902173049 | 34 | 219 | 6.4 | 17.7 | 0.00 | 0.00 | 0.00 | 44 | 1013.3 |
| 20260902172545 | 34 | 233 | 9.7 | 17.7 | 0.00 | 0.00 | 0.00 | 45 | 1013.4 |
| 20260902172048 | 34 | 176 | 9.7 | 16.1 | 0.00 | 0.00 | 0.00 | 45 | 1013.5 |
| 20260902171543 | 33 | 224 | 6.4 | 16.1 | 0.00 | 0.00 | 0.00 | 45 | 1013.5 |
| 20260902171044 | 33 | 274 | 4.8 | 16.1 | 0.00 | 0.00 | 0.00 | 46 | 1013.6 |
| 20260902170541 | 33 | 260 | 8.0 | 20.9 | 0.00 | 0.00 | 0.00 | 46 | 1013.6 |
| 20260902170045 | 33 | 142 | 16.1 | 19.3 | 0.00 | 0.00 | 0.00 | 47 | 1013.6 |
| 20260902165039 | 33 | 175 | 6.4 | 17.7 | 0.00 | 0.00 | 0.00 | 47 | 1013.8 |
| 20260902164538 | 33 | 176 | 9.7 | 17.7 | 0.00 | 0.00 | 0.00 | 48 | 1013.9 |
| 20260902164036 | 33 | 221 | 9.7 | 14.5 | 0.00 | 0.00 | 0.00 | 48 | 1014.0 |
| 20260902163535 | 33 | 187 | 8.0 | 19.3 | 0.00 | 0.00 | 0.00 | 49 | 1014.0 |
| 20260902163038 | 33 | 213 | 12.9 | 19.3 | 0.00 | 0.00 | 0.00 | 49 | 1014.0 |
| 20260902162533 | 32 | 241 | 1.6 | 12.9 | 0.00 | 0.00 | 0.00 | 50 | 1014.0 |
| 20260902162031 | 32 | 228 | 8.0 | 12.9 | 0.00 | 0.00 | 0.00 | 50 | 1014.1 |
| 20260902161530 | 32 | 224 | 1.6 | 12.9 | 0.00 | 0.00 | 0.00 | 51 | 1014.0 |
| 20260902161031 | 32 | 223 | 8.0 | 16.1 | 0.00 | 0.00 | 0.00 | 52 | 1014.1 |
| 20260902160529 | 32 | 259 | 6.4 | 16.1 | 0.00 | 0.00 | 0.00 | 52 | 1014.1 |
| 20260902160028 | 32 | 182 | 6.4 | 14.5 | 0.00 | 0.00 | 0.00 | 53 | 1014.1 |
| 20260902155032 | 31 | 175 | 4.8 | 14.5 | 0.00 | 0.00 | 0.00 | 54 | 1014.2 |
| 20260902154533 | 31 | 290 | 6.4 | 14.5 | 0.00 | 0.00 | 0.00 | 54 | 1014.2 |